createdAt,value
2023-02-03T00:00:27.896Z,14
2023-02-03T00:01:27.899Z,15
2023-02-03T00:02:28.116Z,15
2023-02-03T00:03:27.559Z,17
2023-02-03T00:04:27.535Z,16
2023-02-03T00:05:27.923Z,17
2023-02-03T00:06:28.048Z,18
2023-02-03T00:07:28.132Z,18
2023-02-03T00:08:28.072Z,16
2023-02-03T00:09:28.126Z,15
2023-02-03T00:10:28.082Z,16
2023-02-03T00:11:27.997Z,14
2023-02-03T00:12:27.781Z,11
2023-02-03T00:13:28.070Z,13
2023-02-03T00:14:27.457Z,15
2023-02-03T00:15:27.438Z,12
2023-02-03T00:16:26.357Z,11
2023-02-03T00:17:27.986Z,13
2023-02-03T00:18:27.479Z,10
2023-02-03T00:19:27.983Z,16
2023-02-03T00:20:28.462Z,17
2023-02-03T00:21:28.320Z,12
2023-02-03T00:22:28.126Z,12
2023-02-03T00:23:27.944Z,14
2023-02-03T00:24:28.045Z,14
2023-02-03T00:25:27.418Z,14
2023-02-03T00:26:27.452Z,14
2023-02-03T00:27:27.752Z,14
2023-02-03T00:28:27.465Z,14
2023-02-03T00:29:28.405Z,13
2023-02-03T00:30:27.800Z,14
2023-02-03T00:31:28.180Z,16
2023-02-03T00:32:27.783Z,17
2023-02-03T00:33:27.380Z,13
2023-02-03T00:34:28.005Z,18
2023-02-03T00:35:28.221Z,14
2023-02-03T00:36:28.035Z,18
2023-02-03T00:37:28.012Z,17
2023-02-03T00:38:27.727Z,21
2023-02-03T00:39:27.416Z,15
2023-02-03T00:40:28.300Z,17
2023-02-03T00:41:27.437Z,15
2023-02-03T00:42:27.433Z,17
2023-02-03T00:43:28.048Z,16
2023-02-03T00:44:27.456Z,16
2023-02-03T00:45:27.408Z,15
2023-02-03T00:46:27.420Z,13
2023-02-03T00:47:28.045Z,14
2023-02-03T00:48:28.202Z,13
2023-02-03T00:49:28.209Z,10
2023-02-03T00:50:27.792Z,13
2023-02-03T00:51:27.616Z,15
2023-02-03T00:52:27.486Z,10
2023-02-03T00:53:27.809Z,13
2023-02-03T00:54:27.447Z,14
2023-02-03T00:55:27.418Z,12
2023-02-03T00:56:27.396Z,12
2023-02-03T00:57:27.692Z,12
2023-02-03T00:58:28.043Z,11
2023-02-03T00:59:27.417Z,11
2023-02-03T01:00:27.974Z,15
2023-02-03T01:01:27.838Z,12
2023-02-03T01:02:27.582Z,13
2023-02-03T01:03:27.485Z,13
2023-02-03T01:04:27.484Z,11
2023-02-03T01:05:27.860Z,11
2023-02-03T01:06:27.905Z,11
2023-02-03T01:07:28.002Z,12
2023-02-03T01:08:27.712Z,13
2023-02-03T01:09:27.949Z,13
2023-02-03T01:10:27.808Z,13
2023-02-03T01:11:27.828Z,10
2023-02-03T01:12:27.954Z,11
2023-02-03T01:13:27.955Z,10
2023-02-03T01:14:28.158Z,10
2023-02-03T01:15:27.455Z,11
2023-02-03T01:16:28.742Z,12
2023-02-03T01:17:27.864Z,11
2023-02-03T01:18:27.490Z,14
2023-02-03T01:19:27.490Z,11
2023-02-03T01:20:27.659Z,14
2023-02-03T01:21:28.406Z,11
2023-02-03T01:22:27.866Z,8
2023-02-03T01:23:28.029Z,14
2023-02-03T01:24:27.806Z,10
2023-02-03T01:25:27.398Z,13
2023-02-03T01:26:27.390Z,9
2023-02-03T01:27:27.499Z,10
2023-02-03T01:28:27.516Z,10
2023-02-03T01:29:28.354Z,12
2023-02-03T01:30:28.041Z,10
2023-02-03T01:31:28.302Z,10
2023-02-03T01:32:28.273Z,11
2023-02-03T01:33:27.970Z,14
2023-02-03T01:34:27.459Z,10
2023-02-03T01:35:27.360Z,12
2023-02-03T01:36:27.501Z,11
2023-02-03T01:37:27.476Z,9
2023-02-03T01:38:28.016Z,9
2023-02-03T01:39:28.104Z,9
2023-02-03T01:40:28.622Z,10
2023-02-03T01:41:27.654Z,10
2023-02-03T01:42:27.620Z,10
2023-02-03T01:43:27.415Z,9
2023-02-03T01:44:27.414Z,12
2023-02-03T01:45:26.574Z,11
2023-02-03T01:46:27.428Z,9
2023-02-03T01:47:27.771Z,8
2023-02-03T01:48:26.242Z,9
2023-02-03T01:49:27.459Z,9
2023-02-03T01:50:27.677Z,12
2023-02-03T01:51:27.480Z,10
2023-02-03T01:52:28.192Z,12
2023-02-03T01:53:27.376Z,10
2023-02-03T01:54:27.699Z,10
2023-02-03T01:55:27.918Z,7
2023-02-03T01:56:28.439Z,13
2023-02-03T01:57:27.514Z,9
2023-02-03T01:58:27.714Z,10
2023-02-03T01:59:28.012Z,9
2023-02-03T02:00:28.463Z,10
2023-02-03T02:01:27.514Z,9
2023-02-03T02:02:27.846Z,8
2023-02-03T02:03:27.951Z,13
2023-02-03T02:04:27.476Z,8
2023-02-03T02:05:28.194Z,11
2023-02-03T02:06:28.107Z,7
2023-02-03T02:07:27.492Z,6
2023-02-03T02:08:27.700Z,11
2023-02-03T02:09:27.620Z,8
2023-02-03T02:10:26.781Z,11
2023-02-03T02:11:27.392Z,7
2023-02-03T02:12:27.429Z,9
2023-02-03T02:13:27.383Z,11
2023-02-03T02:14:27.410Z,8
2023-02-03T02:15:27.438Z,8
2023-02-03T02:16:27.449Z,8
2023-02-03T02:17:27.392Z,12
2023-02-03T02:18:27.408Z,8
2023-02-03T02:19:27.447Z,10
2023-02-03T02:20:27.812Z,9
2023-02-03T02:21:27.966Z,15
2023-02-03T02:22:27.999Z,9
2023-02-03T02:23:27.386Z,11
2023-02-03T02:24:29.022Z,12
2023-02-03T02:25:27.961Z,7
2023-02-03T02:26:27.435Z,11
2023-02-03T02:27:28.096Z,9
2023-02-03T02:28:28.041Z,11
2023-02-03T02:29:27.742Z,8
2023-02-03T02:30:28.540Z,11
2023-02-03T02:31:27.585Z,7
2023-02-03T02:32:27.378Z,11
2023-02-03T02:33:27.856Z,10
2023-02-03T02:34:27.406Z,9
2023-02-03T02:35:27.542Z,8
2023-02-03T02:36:27.367Z,6
2023-02-03T02:37:27.468Z,9
2023-02-03T02:38:27.872Z,7
2023-02-03T02:39:27.679Z,10
2023-02-03T02:40:28.432Z,9
2023-02-03T02:41:28.325Z,7
2023-02-03T02:42:27.489Z,11
2023-02-03T02:43:27.693Z,11
2023-02-03T02:44:27.401Z,13
2023-02-03T02:45:27.911Z,8
2023-02-03T02:46:27.469Z,10
2023-02-03T02:47:28.267Z,10
2023-02-03T02:48:27.539Z,8
2023-02-03T02:49:27.541Z,7
2023-02-03T02:50:27.884Z,13
2023-02-03T02:51:27.772Z,8
2023-02-03T02:52:27.855Z,9
2023-02-03T02:53:28.282Z,9
2023-02-03T02:54:27.469Z,10
2023-02-03T02:55:27.486Z,10
2023-02-03T02:56:27.399Z,12
2023-02-03T02:57:28.008Z,10
2023-02-03T02:58:27.390Z,8
2023-02-03T02:59:28.287Z,9
2023-02-03T03:00:28.307Z,10
2023-02-03T03:01:28.208Z,10
2023-02-03T03:02:27.402Z,7
2023-02-03T03:03:27.425Z,8
2023-02-03T03:04:27.554Z,8
2023-02-03T03:05:27.382Z,8
2023-02-03T03:06:28.364Z,8
2023-02-03T03:07:27.754Z,9
2023-02-03T03:08:27.473Z,7
2023-02-03T03:09:27.374Z,7
2023-02-03T03:10:28.051Z,11
2023-02-03T03:11:28.206Z,7
2023-02-03T03:12:27.366Z,8
2023-02-03T03:13:27.368Z,13
2023-02-03T03:14:27.490Z,8
2023-02-03T03:15:27.680Z,9
2023-02-03T03:16:27.421Z,8
2023-02-03T03:17:26.314Z,9
2023-02-03T03:18:27.520Z,9
2023-02-03T03:19:27.922Z,8
2023-02-03T03:20:27.917Z,10
2023-02-03T03:21:27.447Z,5
2023-02-03T03:22:27.776Z,10
2023-02-03T03:23:27.546Z,8
2023-02-03T03:24:27.885Z,6
2023-02-03T03:25:27.755Z,8
2023-02-03T03:26:27.500Z,7
2023-02-03T03:27:27.504Z,7
2023-02-03T03:28:27.921Z,7
2023-02-03T03:29:27.390Z,8
2023-02-03T03:30:28.379Z,9
2023-02-03T03:31:27.574Z,6
2023-02-03T03:32:27.404Z,6
2023-02-03T03:33:27.422Z,7
2023-02-03T03:34:27.409Z,7
2023-02-03T03:35:27.536Z,6
2023-02-03T03:36:28.053Z,6
2023-02-03T03:37:27.742Z,7
2023-02-03T03:38:27.972Z,6
2023-02-03T03:39:27.647Z,7
2023-02-03T03:40:27.830Z,7
2023-02-03T03:41:28.239Z,7
2023-02-03T03:42:27.363Z,6
2023-02-03T03:43:27.494Z,7
2023-02-03T03:44:28.299Z,8
2023-02-03T03:45:29.740Z,7
2023-02-03T03:46:28.282Z,9
2023-02-03T03:47:28.318Z,7
2023-02-03T03:48:27.815Z,6
2023-02-03T03:49:27.931Z,8
2023-02-03T03:50:27.657Z,8
2023-02-03T03:51:27.440Z,7
2023-02-03T03:52:27.963Z,10
2023-02-03T03:53:27.368Z,8
2023-02-03T03:54:27.453Z,8
2023-02-03T03:55:27.589Z,8
2023-02-03T03:56:28.079Z,7
2023-02-03T03:57:28.072Z,9
2023-02-03T03:58:27.572Z,6
2023-02-03T03:59:27.471Z,8
2023-02-03T04:00:28.336Z,9
2023-02-03T04:01:27.635Z,8
2023-02-03T04:02:28.089Z,5
2023-02-03T04:03:27.443Z,10
2023-02-03T04:04:27.505Z,7
2023-02-03T04:05:27.380Z,9
2023-02-03T04:06:28.055Z,10
2023-02-03T04:07:28.013Z,8
2023-02-03T04:08:27.435Z,6
2023-02-03T04:09:27.646Z,7
2023-02-03T04:10:28.388Z,8
2023-02-03T04:11:27.452Z,8
2023-02-03T04:12:27.480Z,7
2023-02-03T04:13:27.661Z,8
2023-02-03T04:14:27.457Z,7
2023-02-03T04:15:27.477Z,7
2023-02-03T04:16:28.145Z,7
2023-02-03T04:17:28.016Z,5
2023-02-03T04:18:28.006Z,8
2023-02-03T04:19:27.939Z,7
2023-02-03T04:20:27.742Z,8
2023-02-03T04:21:27.403Z,8
2023-02-03T04:22:27.428Z,6
2023-02-03T04:23:27.433Z,9
2023-02-03T04:24:27.417Z,9
2023-02-03T04:25:27.511Z,8
2023-02-03T04:26:27.444Z,8
2023-02-03T04:27:27.461Z,8
2023-02-03T04:28:28.268Z,8
2023-02-03T04:29:27.460Z,9
2023-02-03T04:30:28.386Z,7
2023-02-03T04:31:27.873Z,7
2023-02-03T04:32:27.424Z,11
2023-02-03T04:33:27.588Z,8
2023-02-03T04:34:27.366Z,10
2023-02-03T04:35:27.389Z,8
2023-02-03T04:36:27.711Z,11
2023-02-03T04:37:27.566Z,8
2023-02-03T04:38:27.422Z,7
2023-02-03T04:39:28.257Z,6
2023-02-03T04:40:28.571Z,9
2023-02-03T04:41:27.379Z,7
2023-02-03T04:42:28.004Z,7
2023-02-03T04:43:27.452Z,7
2023-02-03T04:44:27.737Z,6
2023-02-03T04:45:27.719Z,11
2023-02-03T04:46:28.234Z,8
2023-02-03T04:47:27.377Z,7
2023-02-03T04:48:27.384Z,8
2023-02-03T04:49:28.118Z,9
2023-02-03T04:50:27.739Z,12
2023-02-03T04:51:27.406Z,12
2023-02-03T04:52:28.349Z,7
2023-02-03T04:53:28.231Z,8
2023-02-03T04:54:27.914Z,8
2023-02-03T04:55:27.845Z,7
2023-02-03T04:56:27.419Z,9
2023-02-03T04:57:28.187Z,7
2023-02-03T04:58:27.433Z,9
2023-02-03T04:59:27.448Z,10
2023-02-03T05:00:28.501Z,10
2023-02-03T05:01:27.647Z,6
2023-02-03T05:02:27.480Z,9
2023-02-03T05:03:28.137Z,8
2023-02-03T05:04:27.479Z,8
2023-02-03T05:05:28.045Z,8
2023-02-03T05:06:27.808Z,6
2023-02-03T05:07:28.033Z,6
2023-02-03T05:08:28.145Z,6
2023-02-03T05:09:27.000Z,8
2023-02-03T05:10:27.988Z,7
2023-02-03T05:11:27.420Z,7
2023-02-03T05:12:28.042Z,7
2023-02-03T05:13:27.643Z,10
2023-02-03T05:14:27.633Z,10
2023-02-03T05:15:28.158Z,10
2023-02-03T05:16:27.541Z,6
2023-02-03T05:17:27.537Z,7
2023-02-03T05:18:27.891Z,9
2023-02-03T05:19:27.537Z,6
2023-02-03T05:20:28.435Z,9
2023-02-03T05:21:28.110Z,6
2023-02-03T05:22:27.386Z,10
2023-02-03T05:23:28.023Z,6
2023-02-03T05:24:27.412Z,9
2023-02-03T05:25:27.411Z,5
2023-02-03T05:26:28.240Z,7
2023-02-03T05:27:27.358Z,6
2023-02-03T05:28:28.407Z,8
2023-02-03T05:29:28.060Z,7
2023-02-03T05:30:28.185Z,9
2023-02-03T05:31:27.401Z,9
2023-02-03T05:32:27.988Z,8
2023-02-03T05:33:27.971Z,9
2023-02-03T05:34:28.037Z,6
2023-02-03T05:35:27.347Z,6
2023-02-03T05:36:28.172Z,7
2023-02-03T05:37:27.690Z,7
2023-02-03T05:38:27.373Z,6
2023-02-03T05:39:28.137Z,6
2023-02-03T05:40:27.756Z,7
2023-02-03T05:41:27.412Z,6
2023-02-03T05:42:27.365Z,9
2023-02-03T05:43:28.030Z,9
2023-02-03T05:44:27.737Z,9
2023-02-03T05:45:27.615Z,9
2023-02-03T05:46:27.557Z,6
2023-02-03T05:47:27.442Z,9
2023-02-03T05:48:27.350Z,8
2023-02-03T05:49:27.461Z,9
2023-02-03T05:50:28.006Z,9
2023-02-03T05:51:27.476Z,10
2023-02-03T05:52:27.374Z,8
2023-02-03T05:53:27.790Z,7
2023-02-03T05:54:28.079Z,10
2023-02-03T05:55:26.443Z,7
2023-02-03T05:56:27.963Z,11
2023-02-03T05:57:27.399Z,14
2023-02-03T05:58:27.627Z,9
2023-02-03T05:59:27.632Z,8
2023-02-03T06:00:28.590Z,6
2023-02-03T06:01:27.844Z,8
2023-02-03T06:02:27.454Z,7
2023-02-03T06:03:27.970Z,9
2023-02-03T06:04:27.796Z,6
2023-02-03T06:05:27.961Z,6
2023-02-03T06:06:27.405Z,8
2023-02-03T06:07:27.374Z,7
2023-02-03T06:08:28.207Z,7
2023-02-03T06:09:28.104Z,8
2023-02-03T06:10:27.678Z,5
2023-02-03T06:11:27.399Z,11
2023-02-03T06:12:29.278Z,8
2023-02-03T06:13:27.904Z,8
2023-02-03T06:14:27.412Z,6
2023-02-03T06:15:27.415Z,10
2023-02-03T06:16:27.833Z,8
2023-02-03T06:17:26.251Z,5
2023-02-03T06:18:27.468Z,7
2023-02-03T06:19:27.395Z,7
2023-02-03T06:20:28.033Z,7
2023-02-03T06:21:27.390Z,6
2023-02-03T06:22:27.520Z,5
2023-02-03T06:23:27.986Z,5
2023-02-03T06:24:28.301Z,6
2023-02-03T06:25:27.783Z,4
2023-02-03T06:26:28.003Z,9
2023-02-03T06:27:27.709Z,7
2023-02-03T06:28:27.734Z,5
2023-02-03T06:29:28.021Z,6
2023-02-03T06:30:28.437Z,6
2023-02-03T06:31:28.301Z,6
2023-02-03T06:32:27.951Z,8
2023-02-03T06:33:27.365Z,7
2023-02-03T06:34:27.381Z,5
2023-02-03T06:35:27.971Z,7
2023-02-03T06:36:28.148Z,7
2023-02-03T06:37:28.078Z,6
2023-02-03T06:38:28.297Z,6
2023-02-03T06:39:26.245Z,6
2023-02-03T06:40:28.358Z,9
2023-02-03T06:41:28.260Z,8
2023-02-03T06:42:28.371Z,5
2023-02-03T06:43:27.354Z,7
2023-02-03T06:44:27.351Z,6
2023-02-03T06:45:28.025Z,8
2023-02-03T06:46:27.437Z,5
2023-02-03T06:47:28.050Z,7
2023-02-03T06:48:27.603Z,8
2023-02-03T06:49:27.436Z,6
2023-02-03T06:50:28.537Z,7
2023-02-03T06:51:27.582Z,8
2023-02-03T06:52:27.365Z,8
2023-02-03T06:53:28.276Z,4
2023-02-03T06:54:27.744Z,7
2023-02-03T06:55:28.003Z,7
2023-02-03T06:56:28.197Z,7
2023-02-03T06:57:28.105Z,7
2023-02-03T06:58:27.386Z,4
2023-02-03T06:59:27.828Z,7
2023-02-03T07:00:28.209Z,8
2023-02-03T07:01:27.405Z,9
2023-02-03T07:02:27.674Z,6
2023-02-03T07:03:27.956Z,5
2023-02-03T07:04:28.116Z,9
2023-02-03T07:05:27.416Z,6
2023-02-03T07:06:27.340Z,7
2023-02-03T07:07:27.663Z,5
2023-02-03T07:08:27.351Z,9
2023-02-03T07:09:27.893Z,6
2023-02-03T07:10:27.774Z,6
2023-02-03T07:11:27.881Z,5
2023-02-03T07:12:28.030Z,5
2023-02-03T07:13:27.364Z,6
2023-02-03T07:14:27.768Z,10
2023-02-03T07:15:27.477Z,9
2023-02-03T07:16:27.364Z,10
2023-02-03T07:17:28.009Z,13
2023-02-03T07:18:47.947Z,10
2023-02-03T07:19:27.576Z,9
2023-02-03T07:20:28.202Z,8
2023-02-03T07:21:28.087Z,12
2023-02-03T07:22:27.512Z,8
2023-02-03T07:23:28.099Z,9
2023-02-03T07:24:27.921Z,6
2023-02-03T07:25:29.135Z,6
2023-02-03T07:26:27.924Z,10
2023-02-03T07:27:27.418Z,7
2023-02-03T07:28:27.403Z,8
2023-02-03T07:29:27.378Z,6
2023-02-03T07:30:27.824Z,11
2023-02-03T07:31:28.270Z,9
2023-02-03T07:32:27.665Z,8
2023-02-03T07:33:28.173Z,7
2023-02-03T07:34:27.382Z,6
2023-02-03T07:35:27.985Z,6
2023-02-03T07:36:27.377Z,5
2023-02-03T07:37:27.402Z,7
2023-02-03T07:38:27.321Z,6
2023-02-03T07:39:27.536Z,7
2023-02-03T07:40:28.123Z,8
2023-02-03T07:41:27.896Z,6
2023-02-03T07:42:27.640Z,6
2023-02-03T07:43:27.420Z,8
2023-02-03T07:44:28.376Z,6
2023-02-03T07:45:27.447Z,7
2023-02-03T07:46:27.472Z,6
2023-02-03T07:47:28.088Z,7
2023-02-03T07:48:27.448Z,5
2023-02-03T07:49:27.349Z,8
2023-02-03T07:50:27.756Z,12
2023-02-03T07:51:27.977Z,9
2023-02-03T07:52:27.992Z,5
2023-02-03T07:53:27.802Z,6
2023-02-03T07:54:27.745Z,7
2023-02-03T07:55:27.508Z,7
2023-02-03T07:56:27.917Z,5
2023-02-03T07:57:28.121Z,8
2023-02-03T07:58:28.363Z,9
2023-02-03T07:59:27.533Z,6
2023-02-03T08:00:28.291Z,7
2023-02-03T08:01:27.467Z,7
2023-02-03T08:02:27.453Z,8
2023-02-03T08:03:27.566Z,5
2023-02-03T08:04:27.407Z,8
2023-02-03T08:05:27.481Z,6
2023-02-03T08:06:27.332Z,5
2023-02-03T08:07:27.369Z,6
2023-02-03T08:08:27.385Z,4
2023-02-03T08:09:27.899Z,8
2023-02-03T08:10:28.393Z,5
2023-02-03T08:11:27.387Z,6
2023-02-03T08:12:28.223Z,5
2023-02-03T08:13:28.129Z,8
2023-02-03T08:14:27.536Z,8
2023-02-03T08:15:27.423Z,5
2023-02-03T08:16:28.124Z,7
2023-02-03T08:17:28.166Z,8
2023-02-03T08:18:27.358Z,6
2023-02-03T08:19:27.496Z,5
2023-02-03T08:20:27.758Z,7
2023-02-03T08:21:27.769Z,9
2023-02-03T08:22:27.901Z,5
2023-02-03T08:23:28.187Z,6
2023-02-03T08:24:27.699Z,6
2023-02-03T08:25:27.380Z,7
2023-02-03T08:26:27.418Z,4
2023-02-03T08:27:27.417Z,5
2023-02-03T08:28:27.410Z,7
2023-02-03T08:29:27.456Z,8
2023-02-03T08:30:27.803Z,5
2023-02-03T08:31:28.016Z,8
2023-02-03T08:32:28.162Z,6
2023-02-03T08:33:27.451Z,7
2023-02-03T08:34:27.996Z,8
2023-02-03T08:35:27.505Z,6
2023-02-03T08:36:27.352Z,8
2023-02-03T08:37:27.868Z,8
2023-02-03T08:38:27.461Z,9
2023-02-03T08:39:27.798Z,7
2023-02-03T08:40:28.201Z,7
2023-02-03T08:41:27.385Z,7
2023-02-03T08:42:27.809Z,6
2023-02-03T08:43:27.415Z,10
2023-02-03T08:44:27.355Z,7
2023-02-03T08:45:28.016Z,10
2023-02-03T08:46:27.931Z,9
2023-02-03T08:47:27.450Z,6
2023-02-03T08:48:27.434Z,6
2023-02-03T08:49:27.346Z,10
2023-02-03T08:50:27.748Z,6
2023-02-03T08:51:27.964Z,8
2023-02-03T08:52:27.483Z,5
2023-02-03T08:53:27.515Z,5
2023-02-03T08:54:28.179Z,7
2023-02-03T08:55:27.611Z,5
2023-02-03T08:56:27.340Z,6
2023-02-03T08:57:27.339Z,9
2023-02-03T08:58:27.316Z,5
2023-02-03T08:59:27.332Z,9
2023-02-03T09:00:28.422Z,5
2023-02-03T09:01:27.771Z,6
2023-02-03T09:02:28.048Z,7
2023-02-03T09:03:28.149Z,6
2023-02-03T09:04:27.774Z,6
2023-02-03T09:05:27.726Z,9
2023-02-03T09:06:27.326Z,5
2023-02-03T09:07:27.393Z,5
2023-02-03T09:08:27.375Z,5
2023-02-03T09:09:27.869Z,6
2023-02-03T09:10:27.718Z,5
2023-02-03T09:11:27.329Z,8
2023-02-03T09:12:27.631Z,13
2023-02-03T09:13:27.333Z,5
2023-02-03T09:14:27.312Z,7
2023-02-03T09:15:27.356Z,4
2023-02-03T09:16:27.415Z,6
2023-02-03T09:17:27.315Z,6
2023-02-03T09:18:27.346Z,7
2023-02-03T09:19:27.324Z,8
2023-02-03T09:20:27.801Z,9
2023-02-03T09:21:34.921Z,7
2023-02-03T09:22:27.422Z,6
2023-02-03T09:23:27.437Z,6
2023-02-03T09:24:27.350Z,5
2023-02-03T09:25:27.372Z,5
2023-02-03T09:26:27.736Z,5
2023-02-03T09:27:27.368Z,6
2023-02-03T09:28:27.405Z,6
2023-02-03T09:29:27.613Z,8
2023-02-03T09:30:28.796Z,7
2023-02-03T09:31:28.300Z,6
2023-02-03T09:32:27.401Z,7
2023-02-03T09:33:27.437Z,10
2023-02-03T09:34:27.408Z,8
2023-02-03T09:35:27.352Z,7
2023-02-03T09:36:27.407Z,7
2023-02-03T09:37:27.330Z,7
2023-02-03T09:38:27.929Z,6
2023-02-03T09:39:27.548Z,6
2023-02-03T09:40:28.222Z,6
2023-02-03T09:41:28.029Z,7
2023-02-03T09:42:27.472Z,9
2023-02-03T09:43:27.886Z,7
2023-02-03T09:44:27.428Z,6
2023-02-03T09:45:28.018Z,6
2023-02-03T09:46:27.484Z,7
2023-02-03T09:47:27.393Z,9
2023-02-03T09:48:27.552Z,6
2023-02-03T09:49:27.559Z,10
2023-02-03T09:50:28.562Z,8
2023-02-03T09:51:28.050Z,17
2023-02-03T09:52:27.760Z,22
2023-02-03T09:53:27.832Z,13
2023-02-03T09:54:27.943Z,14
2023-02-03T09:55:28.097Z,9
2023-02-03T09:56:27.351Z,9
2023-02-03T09:57:27.317Z,8
2023-02-03T09:58:28.195Z,6
2023-02-03T09:59:27.766Z,7
2023-02-03T10:00:28.486Z,8
2023-02-03T10:01:28.178Z,5
2023-02-03T10:02:27.463Z,7
2023-02-03T10:03:26.614Z,7
2023-02-03T10:04:27.346Z,7
2023-02-03T10:05:27.752Z,8
2023-02-03T10:06:27.426Z,10
2023-02-03T10:07:28.317Z,7
2023-02-03T10:08:28.104Z,6
2023-02-03T10:09:27.360Z,5
2023-02-03T10:10:28.516Z,7
2023-02-03T10:11:27.364Z,10
2023-02-03T10:12:27.454Z,6
2023-02-03T10:13:27.347Z,7
2023-02-03T10:14:27.698Z,8
2023-02-03T10:15:28.117Z,12
2023-02-03T10:16:28.245Z,7
2023-02-03T10:17:28.004Z,10
2023-02-03T10:18:27.411Z,6
2023-02-03T10:19:27.413Z,7
2023-02-03T10:20:27.982Z,8
2023-02-03T10:21:27.407Z,10
2023-02-03T10:22:28.145Z,8
2023-02-03T10:23:28.047Z,11
2023-02-03T10:24:27.373Z,6
2023-02-03T10:25:26.939Z,5
2023-02-03T10:26:27.574Z,8
2023-02-03T10:27:27.466Z,8
2023-02-03T10:28:28.158Z,7
2023-02-03T10:29:27.770Z,8
2023-02-03T10:30:27.839Z,9
2023-02-03T10:31:28.152Z,7
2023-02-03T10:32:27.796Z,5
2023-02-03T10:33:27.942Z,7
2023-02-03T10:34:28.050Z,8
2023-02-03T10:35:28.161Z,12
2023-02-03T10:36:27.753Z,6
2023-02-03T10:37:29.195Z,9
2023-02-03T10:38:28.231Z,7
2023-02-03T10:39:27.334Z,6
2023-02-03T10:40:27.872Z,7
2023-02-03T10:41:28.110Z,8
2023-02-03T10:42:27.460Z,8
2023-02-03T10:43:27.768Z,7
2023-02-03T10:44:27.413Z,8
2023-02-03T10:45:28.008Z,6
2023-02-03T10:46:27.826Z,9
2023-02-03T10:47:27.389Z,9
2023-02-03T10:48:28.139Z,9
2023-02-03T10:49:27.411Z,6
2023-02-03T10:50:29.071Z,8
2023-02-03T10:51:27.441Z,9
2023-02-03T10:52:27.926Z,7
2023-02-03T10:53:27.515Z,9
2023-02-03T10:54:27.342Z,6
2023-02-03T10:55:29.094Z,10
2023-02-03T10:56:27.363Z,6
2023-02-03T10:57:27.340Z,6
2023-02-03T10:58:27.301Z,9
2023-02-03T10:59:28.141Z,6
2023-02-03T11:00:27.714Z,7
2023-02-03T11:01:28.134Z,5
2023-02-03T11:02:27.404Z,9
2023-02-03T11:03:27.800Z,7
2023-02-03T11:04:28.128Z,7
2023-02-03T11:05:27.743Z,6
2023-02-03T11:06:27.365Z,8
2023-02-03T11:07:27.307Z,7
2023-02-03T11:08:27.362Z,6
2023-02-03T11:09:28.141Z,8
2023-02-03T11:10:27.092Z,6
2023-02-03T11:11:27.309Z,9
2023-02-03T11:12:27.947Z,7
2023-02-03T11:13:27.304Z,6
2023-02-03T11:14:27.863Z,7
2023-02-03T11:15:28.324Z,7
2023-02-03T11:16:27.971Z,4
2023-02-03T11:17:27.526Z,6
2023-02-03T11:18:28.310Z,6
2023-02-03T11:19:28.209Z,6
2023-02-03T11:20:27.801Z,4
2023-02-03T11:21:27.877Z,7
2023-02-03T11:22:27.480Z,7
2023-02-03T11:23:27.319Z,8
2023-02-03T11:24:27.947Z,5
2023-02-03T11:25:27.386Z,5
2023-02-03T11:26:27.512Z,6
2023-02-03T11:27:27.841Z,7
2023-02-03T11:28:27.503Z,10
2023-02-03T11:29:27.328Z,10
2023-02-03T11:30:27.722Z,10
2023-02-03T11:31:27.622Z,7
2023-02-03T11:32:27.515Z,6
2023-02-03T11:33:27.357Z,8
2023-02-03T11:34:27.886Z,8
2023-02-03T11:35:27.330Z,8
2023-02-03T11:36:27.929Z,6
2023-02-03T11:37:27.372Z,7
2023-02-03T11:38:27.304Z,7
2023-02-03T11:39:27.709Z,8
2023-02-03T11:40:28.558Z,5
2023-02-03T11:41:27.971Z,10
2023-02-03T11:42:28.057Z,5
2023-02-03T11:43:27.306Z,7
2023-02-03T11:44:27.307Z,7
2023-02-03T11:45:28.276Z,6
2023-02-03T11:46:27.829Z,7
2023-02-03T11:47:27.428Z,6
2023-02-03T11:48:27.779Z,9
2023-02-03T11:49:27.435Z,7
2023-02-03T11:50:28.293Z,8
2023-02-03T11:51:28.134Z,7
2023-02-03T11:52:27.316Z,7
2023-02-03T11:53:27.339Z,8
2023-02-03T11:54:27.358Z,7
2023-02-03T11:55:28.123Z,9
2023-02-03T11:56:27.309Z,9
2023-02-03T11:57:27.296Z,7
2023-02-03T11:58:27.806Z,9
2023-02-03T11:59:27.323Z,9
2023-02-03T12:00:28.546Z,10
2023-02-03T12:01:27.752Z,13
2023-02-03T12:02:27.381Z,7
2023-02-03T12:03:27.692Z,10
2023-02-03T12:04:27.882Z,9
2023-02-03T12:05:27.322Z,9
2023-02-03T12:06:28.101Z,9
2023-02-03T12:07:27.303Z,11
2023-02-03T12:08:27.607Z,10
2023-02-03T12:09:27.965Z,11
2023-02-03T12:10:27.684Z,10
2023-02-03T12:11:28.245Z,9
2023-02-03T12:12:28.025Z,11
2023-02-03T12:13:27.568Z,12
2023-02-03T12:14:27.315Z,10
2023-02-03T12:15:27.395Z,10
2023-02-03T12:16:28.058Z,10
2023-02-03T12:17:26.487Z,10
2023-02-03T12:18:28.228Z,12
2023-02-03T12:19:27.763Z,12
2023-02-03T12:20:27.669Z,11
2023-02-03T12:21:28.137Z,12
2023-02-03T12:22:27.312Z,10
2023-02-03T12:23:27.803Z,11
2023-02-03T12:24:27.302Z,10
2023-02-03T12:25:27.766Z,13
2023-02-03T12:26:27.303Z,13
2023-02-03T12:27:27.309Z,11
2023-02-03T12:28:33.781Z,10
2023-02-03T12:29:27.332Z,10
2023-02-03T12:30:28.615Z,12
2023-02-03T12:31:27.467Z,12
2023-02-03T12:32:28.055Z,13
2023-02-03T12:33:27.349Z,12
2023-02-03T12:34:27.308Z,13
2023-02-03T12:35:27.838Z,17
2023-02-03T12:36:27.809Z,12
2023-02-03T12:37:27.855Z,12
2023-02-03T12:38:28.168Z,15
2023-02-03T12:39:26.123Z,15
2023-02-03T12:40:27.762Z,14
2023-02-03T12:41:29.377Z,15
2023-02-03T12:42:27.343Z,16
2023-02-03T12:43:27.305Z,15
2023-02-03T12:44:27.335Z,15
2023-02-03T12:45:28.033Z,14
2023-02-03T12:46:27.303Z,15
2023-02-03T12:47:27.304Z,14
2023-02-03T12:48:27.359Z,13
2023-02-03T12:49:27.352Z,13
2023-02-03T12:50:28.261Z,17
2023-02-03T12:51:27.780Z,15
2023-02-03T12:52:27.846Z,16
2023-02-03T12:53:29.184Z,15
2023-02-03T12:54:27.306Z,15
2023-02-03T12:55:27.388Z,18
2023-02-03T12:56:27.388Z,19
2023-02-03T12:57:27.395Z,15
2023-02-03T12:58:27.388Z,15
2023-02-03T12:59:27.433Z,16
2023-02-03T13:00:27.784Z,15
2023-02-03T13:01:27.377Z,15
2023-02-03T13:02:27.609Z,15
2023-02-03T13:03:27.306Z,16
2023-02-03T13:04:27.875Z,14
2023-02-03T13:05:28.015Z,17
2023-02-03T13:06:27.361Z,15
2023-02-03T13:07:27.886Z,14
2023-02-03T13:08:27.318Z,16
2023-02-03T13:09:27.298Z,14
2023-02-03T13:10:27.702Z,18
2023-02-03T13:11:27.302Z,15
2023-02-03T13:12:27.356Z,15
2023-02-03T13:13:27.364Z,17
2023-02-03T13:14:27.512Z,17
2023-02-03T13:15:28.130Z,15
2023-02-03T13:16:27.774Z,17
2023-02-03T13:17:27.306Z,23
2023-02-03T13:18:27.955Z,16
2023-02-03T13:19:36.179Z,15
2023-02-03T13:20:28.557Z,15
2023-02-03T13:21:27.640Z,13
2023-02-03T13:22:27.902Z,16
2023-02-03T13:23:26.120Z,18
2023-02-03T13:24:27.298Z,14
2023-02-03T13:25:28.197Z,16
2023-02-03T13:26:27.385Z,17
2023-02-03T13:27:27.980Z,15
2023-02-03T13:28:27.742Z,15
2023-02-03T13:29:27.653Z,16
2023-02-03T13:30:27.788Z,17
2023-02-03T13:31:28.116Z,16
2023-02-03T13:32:27.627Z,19
2023-02-03T13:33:27.855Z,19
2023-02-03T13:34:27.688Z,26
2023-02-03T13:35:33.770Z,18
2023-02-03T13:36:27.355Z,17
2023-02-03T13:37:27.321Z,19
2023-02-03T13:38:27.801Z,17
2023-02-03T13:39:27.481Z,21
2023-02-03T13:40:27.809Z,18
2023-02-03T13:41:27.380Z,23
2023-02-03T13:42:27.433Z,20
2023-02-03T13:43:37.725Z,22
2023-02-03T13:44:27.297Z,21
2023-02-03T13:45:27.703Z,22
2023-02-03T13:46:27.423Z,25
2023-02-03T13:47:27.607Z,23
2023-02-03T13:48:27.447Z,24
2023-02-03T13:49:27.432Z,27
2023-02-03T13:50:27.933Z,28
2023-02-03T13:51:27.311Z,26
2023-02-03T13:52:27.338Z,33
2023-02-03T13:53:27.681Z,25
2023-02-03T13:54:27.558Z,33
2023-02-03T13:55:27.868Z,36
2023-02-03T13:56:27.379Z,29
2023-02-03T13:57:27.325Z,26
2023-02-03T13:58:27.289Z,24
2023-02-03T13:59:27.283Z,26
2023-02-03T14:00:27.616Z,26
2023-02-03T14:01:27.352Z,25
2023-02-03T14:02:27.304Z,28
2023-02-03T14:03:28.247Z,28
2023-02-03T14:04:27.886Z,26
2023-02-03T14:05:27.670Z,28
2023-02-03T14:06:27.853Z,24
2023-02-03T14:07:27.845Z,30
2023-02-03T14:08:27.764Z,30
2023-02-03T14:09:27.855Z,30
2023-02-03T14:10:27.316Z,29
2023-02-03T14:12:27.278Z,31
2023-02-03T14:13:27.311Z,32
2023-02-03T14:14:27.383Z,35
2023-02-03T14:15:27.710Z,36
2023-02-03T14:16:28.165Z,31
2023-02-03T14:17:27.298Z,32
2023-02-03T14:18:27.951Z,32
2023-02-03T14:19:27.330Z,37
2023-02-03T14:20:27.736Z,33
2023-02-03T14:21:27.347Z,40
2023-02-03T14:22:27.370Z,33
2023-02-03T14:23:27.533Z,36
2023-02-03T14:24:28.082Z,33
2023-02-03T14:25:27.883Z,35
2023-02-03T14:26:27.278Z,39
2023-02-03T14:27:27.861Z,31
2023-02-03T14:28:27.907Z,33
2023-02-03T14:29:28.092Z,34
2023-02-03T14:30:28.041Z,38
2023-02-03T14:31:27.833Z,39
2023-02-03T14:32:27.422Z,34
2023-02-03T14:33:27.400Z,37
2023-02-03T14:34:27.997Z,36
2023-02-03T14:35:27.783Z,34